createdAt,value
2019-02-17T00:04:19.179Z,10.13
2019-02-17T00:07:08.895Z,10.90
2019-02-17T00:09:52.439Z,11.17
2019-02-17T00:12:42.234Z,11.00
2019-02-17T00:15:26.299Z,9.70
2019-02-17T00:18:17.253Z,6.77
2019-02-17T00:20:47.973Z,6.30
2019-02-17T00:23:18.639Z,5.97
2019-02-17T00:25:49.349Z,5.37
2019-02-17T00:28:39.105Z,4.10
2019-02-17T00:31:49.479Z,4.03
2019-02-17T00:34:20.247Z,4.83
2019-02-17T00:36:50.917Z,4.60
2019-02-17T00:40:00.052Z,6.13
2019-02-17T00:42:50.083Z,6.40
2019-02-17T00:45:33.625Z,6.93
2019-02-17T00:48:23.431Z,7.23
2019-02-17T00:51:06.883Z,7.73
2019-02-17T00:54:15.997Z,7.00
2019-02-17T00:56:58.651Z,7.03
2019-02-17T00:59:48.747Z,6.93
2019-02-17T01:02:32.028Z,7.30
2019-02-17T01:05:02.673Z,6.50
2019-02-17T01:07:56.693Z,6.40
2019-02-17T01:10:39.651Z,6.50
2019-02-17T01:13:30.827Z,6.90
2019-02-17T01:16:01.514Z,6.87
2019-02-17T01:18:51.259Z,7.70
2019-02-17T01:21:40.996Z,7.93
2019-02-17T01:24:23.787Z,9.70
2019-02-17T01:27:13.524Z,8.80
2019-02-17T01:29:55.808Z,8.80
2019-02-17T01:33:04.640Z,9.00
2019-02-17T01:35:46.772Z,9.90
2019-02-17T01:38:36.526Z,8.87
2019-02-17T01:41:18.926Z,5.70
2019-02-17T01:44:08.730Z,4.60
2019-02-17T01:46:58.848Z,3.83
2019-02-17T01:49:48.573Z,3.80
2019-02-17T01:52:38.399Z,4.00
2019-02-17T01:55:28.155Z,5.03
2019-02-17T01:58:17.963Z,3.50
2019-02-17T02:01:07.789Z,4.90
2019-02-17T02:03:57.561Z,5.87
2019-02-17T02:06:47.331Z,6.50
2019-02-17T02:09:37.103Z,5.73
2019-02-17T02:12:26.859Z,5.83
2019-02-17T02:15:16.637Z,4.40
2019-02-17T02:18:06.380Z,3.40
2019-02-17T02:21:15.311Z,3.70
2019-02-17T02:24:05.248Z,4.27
2019-02-17T02:26:55.156Z,4.60
2019-02-17T02:35:02.923Z,8.37
2019-02-17T02:37:52.698Z,7.40
2019-02-17T02:41:01.584Z,6.70
2019-02-17T02:43:51.452Z,6.27
2019-02-17T02:46:41.213Z,7.00
2019-02-17T02:49:30.953Z,7.70
2019-02-17T02:52:39.804Z,7.17
2019-02-17T02:55:29.805Z,7.00
2019-02-17T02:58:32.362Z,6.93
2019-02-17T03:01:14.736Z,7.27
2019-02-17T03:04:04.480Z,7.40
2019-02-17T03:09:49.773Z,7.50
2019-02-17T03:12:39.482Z,7.13
2019-02-17T03:15:23.821Z,7.37
2019-02-17T03:18:13.576Z,6.20
2019-02-17T03:20:56.195Z,6.90
2019-02-17T03:23:45.898Z,7.17
2019-02-17T03:26:27.923Z,6.63
2019-02-17T03:29:17.783Z,5.73
2019-02-17T03:32:00.083Z,6.30
2019-02-17T03:34:49.820Z,6.47
2019-02-17T03:37:31.903Z,6.87
2019-02-17T03:40:21.637Z,6.03
2019-02-17T03:43:05.433Z,6.50
2019-02-17T03:45:55.150Z,6.57
2019-02-17T03:48:38.540Z,6.10
2019-02-17T03:51:28.247Z,6.07
2019-02-17T03:54:10.607Z,6.10
2019-02-17T03:57:00.348Z,6.73
2019-02-17T03:59:42.873Z,6.80
2019-02-17T04:02:32.615Z,6.30
2019-02-17T04:05:22.349Z,6.30
2019-02-17T04:08:05.931Z,6.07
2019-02-17T04:10:48.192Z,6.20
2019-02-17T04:16:35.247Z,6.60
2019-02-17T04:19:24.937Z,6.47
2019-02-17T04:22:07.043Z,7.27
2019-02-17T04:24:56.800Z,7.77
2019-02-17T04:27:39.439Z,7.03
2019-02-17T04:30:29.850Z,6.67
2019-02-17T04:33:13.444Z,6.67
2019-02-17T04:36:03.164Z,7.30
2019-02-17T04:38:45.595Z,7.20
2019-02-17T04:44:33.902Z,6.67
2019-02-17T04:47:04.534Z,6.30
2019-02-17T04:49:54.271Z,6.73
2019-02-17T04:52:37.075Z,5.73
2019-02-17T04:55:45.972Z,5.77
2019-02-17T04:58:28.802Z,5.77
2019-02-17T05:00:59.564Z,6.07
2019-02-17T05:03:30.164Z,6.40
2019-02-17T05:06:19.874Z,6.10
2019-02-17T05:09:06.486Z,6.17
2019-02-17T05:11:49.111Z,5.80
2019-02-17T05:14:38.873Z,6.63
2019-02-17T05:17:28.698Z,5.90
2019-02-17T05:20:18.519Z,5.87
2019-02-17T05:23:08.271Z,5.93
2019-02-17T05:25:58.059Z,5.90
2019-02-17T05:28:47.847Z,5.60
2019-02-17T05:31:37.668Z,5.53
2019-02-17T05:34:27.367Z,6.10
2019-02-17T05:37:17.091Z,6.20
2019-02-17T05:40:06.840Z,5.73
2019-02-17T05:42:49.963Z,6.10
2019-02-17T05:45:39.710Z,5.70
2019-02-17T05:48:22.583Z,5.93
2019-02-17T05:51:12.380Z,5.20
2019-02-17T05:54:02.179Z,5.40
2019-02-17T05:56:51.924Z,5.20
2019-02-17T05:59:34.290Z,5.30
2019-02-17T06:02:24.076Z,5.20
2019-02-17T06:05:13.978Z,4.63
2019-02-17T06:08:03.774Z,4.90
2019-02-17T06:10:53.515Z,4.90
2019-02-17T06:13:35.933Z,4.80
2019-02-17T06:16:25.665Z,4.70
2019-02-17T06:19:17.700Z,5.07
2019-02-17T06:21:59.852Z,4.73
2019-02-17T06:24:49.702Z,4.73
2019-02-17T06:27:39.489Z,4.70
2019-02-17T06:30:29.214Z,5.37
2019-02-17T06:33:12.433Z,4.93
2019-02-17T06:36:02.226Z,4.77
2019-02-17T06:38:44.217Z,4.47
2019-02-17T06:41:34.015Z,4.87
2019-02-17T06:44:17.474Z,4.93
2019-02-17T06:50:16.136Z,5.10
2019-02-17T06:52:58.176Z,4.80
2019-02-17T06:56:08.983Z,4.87
2019-02-17T06:58:51.368Z,5.00
2019-02-17T07:05:03.724Z,4.73
2019-02-17T07:07:46.191Z,5.37
2019-02-17T07:10:55.042Z,5.03
2019-02-17T07:13:37.087Z,5.20
2019-02-17T07:16:26.838Z,4.80
2019-02-17T07:19:09.060Z,5.00
2019-02-17T07:21:58.818Z,5.20
2019-02-17T07:24:42.620Z,5.23
2019-02-17T07:27:51.520Z,4.90
2019-02-17T07:30:41.315Z,5.10
2019-02-17T07:33:31.019Z,5.17
2019-02-17T07:36:13.153Z,5.20
2019-02-17T07:42:00.380Z,4.37
2019-02-17T07:44:50.147Z,5.07
2019-02-17T07:47:32.689Z,4.50
2019-02-17T07:50:22.429Z,4.60
2019-02-17T07:53:12.197Z,4.97
2019-02-17T07:55:54.421Z,4.90
2019-02-17T07:58:44.142Z,5.43
2019-02-17T08:01:33.931Z,5.43
2019-02-17T08:04:23.711Z,5.43
2019-02-17T08:07:13.439Z,5.70
2019-02-17T08:10:03.230Z,5.50
2019-02-17T08:12:53.056Z,5.17
2019-02-17T08:15:55.117Z,5.53
2019-02-17T08:18:37.549Z,5.17
2019-02-17T08:21:27.284Z,5.60
2019-02-17T08:24:09.483Z,5.13
2019-02-17T08:26:59.221Z,5.10
2019-02-17T08:29:42.130Z,5.50
2019-02-17T08:32:31.830Z,5.83
2019-02-17T08:35:21.532Z,5.10
2019-02-17T08:38:04.098Z,5.90
2019-02-17T08:40:53.837Z,6.33
2019-02-17T08:43:43.552Z,6.67
2019-02-17T08:46:26.051Z,7.23
2019-02-17T08:49:15.806Z,7.53
2019-02-17T08:54:59.247Z,7.90
2019-02-17T08:57:49.037Z,8.83
2019-02-17T09:00:57.889Z,8.30
2019-02-17T09:06:37.458Z,9.80
2019-02-17T09:09:08.429Z,10.93
2019-02-17T09:11:58.198Z,10.83
2019-02-17T09:14:40.670Z,10.57
2019-02-17T09:17:30.502Z,10.43
2019-02-17T09:20:20.306Z,10.63
2019-02-17T09:23:10.086Z,11.13
2019-02-17T09:25:59.850Z,10.50
2019-02-17T09:28:49.626Z,11.23
2019-02-17T09:31:39.386Z,10.90
2019-02-17T09:34:47.926Z,10.80
2019-02-17T09:37:30.240Z,10.23
2019-02-17T09:43:13.485Z,9.97
2019-02-17T09:46:22.390Z,9.73
2019-02-17T09:49:12.168Z,9.30
2019-02-17T09:52:01.946Z,9.80
2019-02-17T09:54:51.743Z,9.63
2019-02-17T09:57:41.526Z,10.27
2019-02-17T10:00:31.352Z,9.23
2019-02-17T10:03:21.053Z,8.97
2019-02-17T10:06:03.422Z,9.27
2019-02-17T10:08:53.242Z,9.20
2019-02-17T10:11:42.980Z,10.30
2019-02-17T10:14:32.736Z,9.57
2019-02-17T10:17:15.298Z,9.80
2019-02-17T10:20:05.250Z,8.40
2019-02-17T10:22:47.900Z,8.63
2019-02-17T10:25:37.636Z,8.93
2019-02-17T10:28:27.365Z,8.07
2019-02-17T10:31:10.086Z,7.37
2019-02-17T10:33:59.892Z,7.43
2019-02-17T10:36:49.621Z,7.47
2019-02-17T10:39:58.408Z,7.30
2019-02-17T10:42:48.135Z,7.40
2019-02-17T10:45:30.967Z,7.23
2019-02-17T10:48:20.742Z,6.70
2019-02-17T10:51:03.150Z,6.97
2019-02-17T10:53:52.870Z,6.70
2019-02-17T10:56:35.128Z,6.20
2019-02-17T10:59:24.890Z,7.47
2019-02-17T11:02:07.686Z,6.23
2019-02-17T11:04:57.394Z,7.20
2019-02-17T11:07:39.780Z,6.93
2019-02-17T11:10:29.502Z,7.03
2019-02-17T11:13:11.675Z,6.60
2019-02-17T11:16:01.379Z,6.77
2019-02-17T11:18:44.000Z,6.63
2019-02-17T11:21:33.742Z,6.43
2019-02-17T11:24:16.040Z,6.50
2019-02-17T11:27:05.798Z,6.47
2019-02-17T11:29:48.068Z,6.00
2019-02-17T11:32:37.832Z,6.33
2019-02-17T11:35:19.796Z,5.50
2019-02-17T11:38:09.527Z,5.50
2019-02-17T11:40:52.226Z,6.17
2019-02-17T11:43:41.909Z,5.87
2019-02-17T11:46:31.662Z,5.90
2019-02-17T11:49:21.404Z,5.80
2019-02-17T11:52:03.858Z,5.70
2019-02-17T11:54:53.555Z,5.50
2019-02-17T11:57:35.979Z,5.93
2019-02-17T12:00:25.724Z,5.87
2019-02-17T12:03:08.564Z,5.57
2019-02-17T12:05:58.290Z,5.73
2019-02-17T12:08:42.517Z,4.67
2019-02-17T12:11:32.213Z,5.83
2019-02-17T12:14:14.925Z,5.33
2019-02-17T12:17:04.674Z,4.87
2019-02-17T12:19:46.777Z,5.03
2019-02-17T12:23:14.365Z,5.20
2019-02-17T12:26:02.838Z,4.63
2019-02-17T12:29:11.371Z,4.60
2019-02-17T12:31:54.275Z,5.13
2019-02-17T12:34:44.018Z,5.10
2019-02-17T12:37:26.455Z,5.00
2019-02-17T12:40:16.162Z,5.73
2019-02-17T12:42:58.521Z,5.00
2019-02-17T12:45:48.273Z,5.60
2019-02-17T12:48:30.681Z,5.90
2019-02-17T12:51:20.402Z,5.30
2019-02-17T12:54:03.429Z,5.13
2019-02-17T12:56:53.146Z,6.00
2019-02-17T12:59:35.675Z,5.37
2019-02-17T13:02:25.401Z,5.30
2019-02-17T13:05:08.139Z,5.23
2019-02-17T13:07:57.863Z,5.43
2019-02-17T13:10:40.245Z,5.70
2019-02-17T13:13:29.981Z,5.53
2019-02-17T13:16:00.723Z,5.53
2019-02-17T13:18:50.451Z,5.13
2019-02-17T13:21:33.281Z,5.23
2019-02-17T13:24:23.010Z,5.50
2019-02-17T13:27:04.987Z,5.20
2019-02-17T13:29:54.737Z,5.83
2019-02-17T13:32:37.653Z,5.53
2019-02-17T13:35:27.399Z,6.30
2019-02-17T13:38:09.400Z,5.93
2019-02-17T13:40:59.151Z,6.00
2019-02-17T13:43:41.537Z,5.17
2019-02-17T13:46:31.272Z,5.30
2019-02-17T13:49:13.758Z,5.37
2019-02-17T13:54:57.163Z,5.40
2019-02-17T13:57:47.051Z,4.80
2019-02-17T14:00:36.872Z,4.90
2019-02-17T14:03:26.702Z,5.30
2019-02-17T14:06:16.518Z,5.63
2019-02-17T14:09:06.795Z,5.23
2019-02-17T14:12:08.742Z,5.63
2019-02-17T14:14:50.750Z,5.00
2019-02-17T14:17:40.478Z,4.70
2019-02-17T14:20:23.088Z,5.30
2019-02-17T14:23:12.836Z,4.77
2019-02-17T14:25:55.098Z,5.20
2019-02-17T14:28:44.802Z,4.90
2019-02-17T14:31:26.862Z,5.30
2019-02-17T14:34:16.568Z,5.37
2019-02-17T14:36:58.654Z,5.43
2019-02-17T14:39:48.482Z,6.07
2019-02-17T14:42:31.028Z,6.40
2019-02-17T14:45:13.062Z,6.00
2019-02-17T14:47:55.232Z,5.67
2019-02-17T14:50:45.066Z,6.07
2019-02-17T14:53:47.366Z,6.20
2019-02-17T14:56:30.353Z,6.13
2019-02-17T15:02:21.468Z,5.97
2019-02-17T15:05:11.197Z,6.63
2019-02-17T15:07:53.392Z,6.93
2019-02-17T15:10:43.116Z,6.63
2019-02-17T15:13:32.842Z,6.73
2019-02-17T15:16:15.350Z,6.67
2019-02-17T15:19:05.099Z,6.53
2019-02-17T15:21:47.782Z,7.37
2019-02-17T15:24:37.524Z,6.70
2019-02-17T15:27:27.279Z,6.13
2019-02-17T15:30:36.150Z,6.60
2019-02-17T15:33:39.327Z,6.50
2019-02-17T15:36:29.106Z,6.53
2019-02-17T15:39:18.895Z,5.90
2019-02-17T15:45:14.136Z,6.20
2019-02-17T15:47:56.738Z,6.80
2019-02-17T15:50:46.645Z,6.50
2019-02-17T15:53:36.473Z,6.30
2019-02-17T15:56:19.098Z,6.30
2019-02-17T15:59:28.125Z,5.70
2019-02-17T16:02:17.917Z,5.23
2019-02-17T16:05:00.461Z,6.00
2019-02-17T16:07:31.094Z,6.10
2019-02-17T16:10:20.853Z,6.23
2019-02-17T16:13:03.405Z,5.60
2019-02-17T16:15:53.347Z,5.87
2019-02-17T16:18:43.134Z,5.80
2019-02-17T16:21:32.891Z,6.13
2019-02-17T16:24:22.605Z,5.97
2019-02-17T16:27:05.978Z,6.17
2019-02-17T16:29:48.075Z,6.60
2019-02-17T16:32:37.805Z,6.63
2019-02-17T16:35:27.686Z,7.10
2019-02-17T16:38:10.613Z,6.27
2019-02-17T16:41:00.427Z,7.00
2019-02-17T16:43:50.228Z,6.40
2019-02-17T16:46:40.031Z,6.47
2019-02-17T16:49:29.777Z,6.03
2019-02-17T16:52:19.615Z,5.70
2019-02-17T16:55:03.975Z,6.03
2019-02-17T16:57:53.727Z,6.10
2019-02-17T17:00:37.028Z,7.27
2019-02-17T17:03:26.851Z,7.90
2019-02-17T17:06:09.207Z,6.90
2019-02-17T17:09:10.828Z,8.47
2019-02-17T17:11:53.543Z,7.87
2019-02-17T17:14:43.438Z,6.97
2019-02-17T17:17:33.326Z,6.80
2019-02-17T17:20:23.266Z,6.63
2019-02-17T17:23:13.096Z,5.70
2019-02-17T17:26:02.969Z,5.97
2019-02-17T17:28:52.745Z,6.67
2019-02-17T17:31:42.754Z,6.77
2019-02-17T17:34:45.154Z,6.87
2019-02-17T17:40:20.024Z,7.83
2019-02-17T17:43:09.797Z,8.00
2019-02-17T17:45:59.549Z,8.50
2019-02-17T17:48:42.200Z,8.37
2019-02-17T17:51:31.999Z,9.30
2019-02-17T17:54:21.825Z,9.60
2019-02-17T17:57:11.636Z,8.57
2019-02-17T18:00:01.487Z,6.13
2019-02-17T18:02:51.297Z,5.80
2019-02-17T18:05:41.202Z,6.87
2019-02-17T18:08:30.965Z,7.03
2019-02-17T18:11:20.729Z,8.97
2019-02-17T18:14:10.577Z,9.70
2019-02-17T18:17:00.378Z,6.90
2019-02-17T18:19:50.195Z,5.90
2019-02-17T18:22:40.212Z,5.30
2019-02-17T18:25:42.902Z,4.50
2019-02-17T18:28:29.801Z,4.33
2019-02-17T18:31:19.629Z,4.07
2019-02-17T18:34:02.064Z,4.27
2019-02-17T18:36:51.772Z,4.47
2019-02-17T18:39:33.884Z,5.30
2019-02-17T18:42:23.632Z,6.00
2019-02-17T18:45:06.764Z,9.30
2019-02-17T18:47:56.564Z,14.83
2019-02-17T18:50:39.454Z,15.87
2019-02-17T18:53:29.206Z,16.40
2019-02-17T18:56:13.174Z,8.93
2019-02-17T18:59:02.916Z,7.93
2019-02-17T19:01:45.774Z,8.77
2019-02-17T19:04:35.528Z,8.10
2019-02-17T19:07:25.288Z,8.93
2019-02-17T19:10:09.836Z,8.57
2019-02-17T19:12:59.595Z,8.33
2019-02-17T19:15:49.441Z,7.17
2019-02-17T19:18:39.214Z,7.83
2019-02-17T19:21:29.015Z,7.37
2019-02-17T19:24:18.797Z,7.00
2019-02-17T19:27:08.566Z,7.73
2019-02-17T19:29:50.951Z,7.03
2019-02-17T19:32:40.730Z,8.10
2019-02-17T19:35:30.520Z,9.50
2019-02-17T19:38:33.295Z,10.23
2019-02-17T19:41:16.106Z,9.43
2019-02-17T19:44:05.861Z,10.00
2019-02-17T19:49:33.750Z,9.90
2019-02-17T19:52:24.527Z,9.33
2019-02-17T19:55:08.564Z,10.50
2019-02-17T19:57:58.332Z,10.20
2019-02-17T20:00:48.106Z,7.90
2019-02-17T20:06:36.362Z,7.60
2019-02-17T20:09:45.311Z,6.40
2019-02-17T20:12:28.069Z,7.43
2019-02-17T20:15:17.905Z,6.77
2019-02-17T20:21:11.309Z,7.13
2019-02-17T20:23:53.631Z,7.13
2019-02-17T20:26:43.421Z,6.70
2019-02-17T20:29:33.274Z,6.47
2019-02-17T20:32:23.105Z,6.07
2019-02-17T20:35:12.904Z,6.90
2019-02-17T20:38:02.645Z,5.90
2019-02-17T20:40:52.442Z,5.80
2019-02-17T20:43:42.236Z,5.67
2019-02-17T20:46:32.055Z,5.90
2019-02-17T20:49:21.917Z,5.53
2019-02-17T20:52:11.708Z,5.80
2019-02-17T20:55:01.514Z,5.23
2019-02-17T20:57:51.313Z,5.30
2019-02-17T21:04:03.795Z,5.00
2019-02-17T21:06:46.115Z,6.40
2019-02-17T21:12:37.941Z,4.97
2019-02-17T21:15:27.753Z,5.60
2019-02-17T21:18:10.767Z,6.17
2019-02-17T21:21:00.495Z,6.77
2019-02-17T21:23:44.472Z,6.60
2019-02-17T21:26:34.280Z,5.60
2019-02-17T21:29:16.562Z,4.63
2019-02-17T21:32:06.315Z,5.00
2019-02-17T21:34:56.072Z,5.30
2019-02-17T21:37:46.035Z,5.53
2019-02-17T21:40:35.733Z,6.33
2019-02-17T21:43:25.488Z,8.40
2019-02-17T21:46:08.280Z,5.47
2019-02-17T21:48:58.049Z,5.50
2019-02-17T21:51:40.930Z,5.07
2019-02-17T21:54:30.711Z,5.17
2019-02-17T22:00:04.763Z,5.67
2019-02-17T22:02:54.538Z,5.93
2019-02-17T22:05:36.526Z,6.80
2019-02-17T22:11:27.191Z,7.13
2019-02-17T22:14:16.921Z,7.00
2019-02-17T22:16:59.380Z,7.07
2019-02-17T22:19:49.125Z,6.80
2019-02-17T22:22:31.688Z,6.40
2019-02-17T22:25:21.561Z,6.77
2019-02-17T22:28:03.869Z,6.43
2019-02-17T22:30:53.636Z,6.73
2019-02-17T22:33:36.610Z,6.17
2019-02-17T22:36:26.380Z,5.23
2019-02-17T22:39:08.894Z,4.70
2019-02-17T22:41:59.597Z,5.10
2019-02-17T22:44:30.532Z,4.80
2019-02-17T22:47:20.704Z,5.73
2019-02-17T22:50:03.454Z,5.40
2019-02-17T22:52:53.578Z,5.17
2019-02-17T22:55:36.282Z,5.07
2019-02-17T22:58:44.532Z,5.17
2019-02-17T23:01:19.067Z,5.53
2019-02-17T23:04:08.790Z,5.90
2019-02-17T23:06:54.437Z,5.83
2019-02-17T23:12:54.577Z,5.43
2019-02-17T23:15:44.702Z,6.90
2019-02-17T23:18:27.625Z,6.00
2019-02-17T23:20:58.422Z,5.87
2019-02-17T23:23:41.218Z,5.60
2019-02-17T23:26:31.998Z,6.13
2019-02-17T23:29:21.790Z,5.93
2019-02-17T23:32:11.664Z,5.50
2019-02-17T23:37:49.200Z,6.40
2019-02-17T23:40:39.256Z,6.00
2019-02-17T23:43:21.584Z,6.77
2019-02-17T23:49:04.175Z,6.30
2019-02-17T23:51:53.923Z,6.50
2019-02-17T23:54:36.877Z,6.33
2019-02-17T23:57:19.050Z,5.93
